Salt Lake City International Airport
KSLC : now visible

Airfield :











YOU CAN JOIN US ON...

 
LOGIN :

Register | Disclaimer

   EN    FR    IT 

 









Legend :    VFR   Marginal VFR   IFR   Intensive IFR   Very Intensive IFR
Visi :
Ceiling :
>= 8 km
>= 3000ft
5 to 8 km
1000 to 3000 ft
1500m to 5 km
500 to 1000 ft
800 to 1500m
200 to 500 ft
< 800m
< 200 ft
Symbols :   Thunderstorms  Fog  Heavy snow  Heavy precipitations  Wind > 20 kt







- Airport Elevation : 4227 ft
- IATA code : SLC


KSLC - Salt Lake City International

CURRENT METAR :
  • 201959Z 33007KT 10SM -TSRA SCT030CB BKN039 OVC055 12/06 A3003 RMK AO2 LTG DSNT S RAB59 TSE57B59 OCNL LTGCC S-SW TS S-SW MOV N CB DSNT S P0000 T01170061

EXPIRED METARs :
  • 201954Z 33010KT 10SM FEW025 BKN036 BKN100 12/06 A3003 RMK AO2 LTG DSNT S SLP141 CB DSNT S T01170061 $
  • 201854Z 02007KT 10SM SCT023 BKN042 BKN120 12/07 A3002 RMK AO2 LTG DSNT SW RAE25 SLP137 CB DSNT SW P0000 T01170072 $
  • 201818Z 02007KT 10SM -RA FEW016 BKN049 BKN060 11/08 A3001 RMK AO2 P0000 T01060078 $
  • 201754Z 29005KT 10SM -RA FEW010 OVC029 11/07 A3000 RMK AO2 SLP134 P0011 60022 T01060067 10122 20089 53011 $
  • 201732Z 28011KT 3SM -RA FEW010 BKN028 OVC034 10/06 A2999 RMK AO2 T01000061 PNO $

TAF KSLC
Valid from the 20 at 18:00 until the 22 at 00:00 UTC


201735Z 2018/2124 33007KT P6SM -SHRA SCT040 OVC060
FM202200 33008KT P6SM VCSH SCT040 BKN070
FM210300 15004KT P6SM SCT050 BKN080
FM210900 13005KT P6SM BKN080
FM211800 31007KT P6SM FEW080
No reported NOTAMs for that airfield.



MET'MAP, your aeronautical weather chart ! - Copyright ORBIFLY December 2007 - Disclaimer

ORBIFLY MET'MAP TEAM :

Programming & Development : Alexandra Zaïnal
Concept & Development : Baudouin d'Aumeries
Co-Development & Prog : Marc-Olivier Méhu
Technical & hardware support : Manuel Goepfert

Contact : metmap@orbifly.com




SOURCES & CREDITS :

   NOAA       Earth
Advisory